General Madariaga, Argentina
Current Conditions -  °F | °C
As of 5:00 PM on Sunday 21 Dec 2014 (Local Time) from SAZM Reporting Station
Scattered Clouds Scattered Clouds  
Wind Chill: 17°   Ceiling: Unl
Heat Index: 17°   Visibility: 6mi
Dew Point:   Wind: 16mph
Humidity: 42%   Direction: 160°SSE
Pressure: 29.83"   Gusts: NA
Location:  37°S, 57.15°W
Report Text: SAZM 212000Z 16014KT 9999 FEW025 SCT10017/04 Q1010
Loading
Personal Weather Stations






























Interactive Weather Map New forecast layout! Learn more

10-Day Weather Forecast

Advertisements
Track Severe Weather on mobile